createdAt,value
2019-03-22T00:03:21.131Z,143453.28
2019-03-22T00:08:17.163Z,143466.17
2019-03-22T00:13:13.086Z,143529.45
2019-03-22T00:18:09.028Z,143536.48
2019-03-22T00:23:04.946Z,143564.63
2019-03-22T00:28:00.917Z,143564.63
2019-03-22T00:32:56.899Z,143571.66
2019-03-22T00:37:52.817Z,143555.23
2019-03-22T00:42:48.747Z,143477.86
2019-03-22T00:47:44.673Z,143459.09
2019-03-22T00:52:40.598Z,143435.69
2019-03-22T00:57:36.623Z,143516.56
2019-03-22T01:02:32.550Z,143455.59
2019-03-22T01:07:28.472Z,143440.34
2019-03-22T01:12:24.391Z,143474.34
2019-03-22T01:17:20.312Z,143438.03
2019-03-22T01:22:16.307Z,143473.19
2019-03-22T01:27:12.323Z,143395.83
2019-03-22T01:32:08.257Z,143418.09
2019-03-22T01:37:04.230Z,143381.78
2019-03-22T01:42:00.167Z,143334.92
2019-03-22T01:46:56.106Z,143452.08
2019-03-22T01:51:52.541Z,143351.31
2019-03-22T01:56:48.495Z,143420.44
2019-03-22T02:01:44.422Z,143449.72
2019-03-22T02:06:40.340Z,143355.97
2019-03-22T02:11:36.259Z,143305.59
2019-03-22T02:16:32.182Z,143211.84
2019-03-22T02:21:29.548Z,143263.41
2019-03-22T02:26:25.756Z,143288.02
2019-03-22T02:31:21.676Z,143182.59
2019-03-22T02:36:17.641Z,143170.88
2019-03-22T02:41:13.565Z,143194.31
2019-03-22T02:46:09.520Z,143125.23
2019-03-22T02:51:05.456Z,143203.69
2019-03-22T02:56:01.608Z,143078.41
2019-03-22T03:00:57.828Z,143142.78
2019-03-22T03:05:53.799Z,143182.59
2019-03-22T03:10:49.934Z,143112.37
2019-03-22T03:15:45.860Z,143107.66
2019-03-22T03:20:41.813Z,143107.66
2019-03-22T03:25:37.854Z,143100.66
2019-03-22T03:30:33.781Z,143177.94
2019-03-22T03:35:29.711Z,143177.94
2019-03-22T03:40:25.640Z,143093.64
2019-03-22T03:45:35.633Z,143062.03
2019-03-22T03:50:31.669Z,143050.31
2019-03-22T03:55:27.687Z,143008.16
2019-03-22T04:00:23.671Z,143002.36
2019-03-22T04:05:20.634Z,143093.64
2019-03-22T04:10:16.645Z,143156.84
2019-03-22T04:15:12.799Z,143135.77
2019-03-22T04:20:08.938Z,143154.50
2019-03-22T04:25:05.886Z,143140.47
2019-03-22T04:30:02.254Z,143162.70
2019-03-22T04:34:58.181Z,143086.58
2019-03-22T04:39:54.330Z,143072.56
2019-03-22T04:44:50.255Z,143065.55
2019-03-22T04:49:47.206Z,143113.53
2019-03-22T04:54:45.602Z,143071.41
2019-03-22T04:59:42.217Z,143094.78
2019-03-22T05:04:38.625Z,143081.92
2019-03-22T05:09:35.154Z,143079.56
2019-03-22T05:14:32.576Z,143040.95
2019-03-22T05:19:50.272Z,143000.00
2019-03-22T05:24:47.297Z,143002.36
2019-03-22T05:29:45.113Z,142983.63
2019-03-22T05:34:41.218Z,142962.56
2019-03-22T05:39:37.193Z,142946.19
2019-03-22T05:44:33.182Z,143002.36
2019-03-22T05:49:36.580Z,143037.45
2019-03-22T05:54:33.866Z,143111.17
2019-03-22T05:59:41.847Z,143231.80
2019-03-22T06:04:31.025Z,143322.03
2019-03-22T06:09:27.138Z,143466.17
2019-03-22T06:14:23.239Z,143514.22
2019-03-22T06:19:19.168Z,143498.97
2019-03-22T06:24:17.144Z,143520.08
2019-03-22T06:29:13.177Z,143412.22
2019-03-22T06:34:09.104Z,143365.34
2019-03-22T06:39:06.227Z,143393.47
2019-03-22T06:44:02.158Z,143452.08
2019-03-22T06:48:58.070Z,143486.08
2019-03-22T06:53:53.999Z,143507.19
2019-03-22T06:58:49.954Z,143552.89
2019-03-22T07:03:45.872Z,143634.97
2019-03-22T07:08:43.601Z,143775.78
2019-03-22T07:13:39.606Z,143862.63
2019-03-22T07:18:35.559Z,143926.00
2019-03-22T07:23:33.283Z,143987.09
2019-03-22T07:28:29.440Z,144016.42
2019-03-22T07:33:27.770Z,144059.89
2019-03-22T07:38:23.793Z,144073.97
2019-03-22T07:43:19.711Z,144103.41
2019-03-22T07:48:15.633Z,144179.75
2019-03-22T07:53:11.640Z,144247.91
2019-03-22T07:58:07.623Z,144285.53
2019-03-22T08:03:03.631Z,144346.63
2019-03-22T08:07:59.550Z,144517.17
2019-03-22T08:12:55.475Z,144473.69
2019-03-22T08:17:51.817Z,144501.92
2019-03-22T08:22:47.925Z,144628.97
2019-03-22T08:27:43.846Z,144713.75
2019-03-22T08:32:39.865Z,144697.23
2019-03-22T08:37:35.790Z,144673.67
2019-03-22T08:42:31.759Z,144710.22
2019-03-22T08:47:33.907Z,144834.98
2019-03-22T08:52:26.243Z,144990.52
2019-03-22T08:57:24.805Z,145182.59
2019-03-22T09:02:20.079Z,145305.28
2019-03-22T09:07:16.009Z,145403.16
2019-03-22T09:12:12.051Z,145508.19
2019-03-22T09:17:07.978Z,145574.28
2019-03-22T09:22:03.890Z,145555.41
2019-03-22T09:26:59.903Z,145619.12
2019-03-22T09:31:55.790Z,145632.09
2019-03-22T09:36:51.796Z,145701.80
2019-03-22T09:41:47.724Z,145711.25
2019-03-22T09:46:43.660Z,145825.83
2019-03-22T09:51:39.566Z,145852.97
2019-03-22T09:56:46.339Z,145845.89
2019-03-22T10:01:33.350Z,145830.53
2019-03-22T10:06:29.309Z,145864.78
2019-03-22T10:11:25.208Z,145812.80
2019-03-22T10:16:21.177Z,145912.09
2019-03-22T10:21:22.214Z,145886.06
2019-03-22T10:26:14.892Z,145912.09
2019-03-22T10:31:10.825Z,145897.89
2019-03-22T10:36:06.731Z,145928.63
2019-03-22T10:41:02.658Z,145931.00
2019-03-22T10:45:59.552Z,145948.69
2019-03-22T10:50:55.568Z,146007.78
2019-03-22T10:55:51.635Z,146011.33
2019-03-22T11:00:47.556Z,146065.69
2019-03-22T11:05:43.584Z,146006.63
2019-03-22T11:10:39.505Z,146033.78
2019-03-22T11:15:35.428Z,145965.28
2019-03-22T11:20:31.355Z,146101.23
2019-03-22T11:25:27.274Z,146115.39
2019-03-22T11:30:23.193Z,146165.06
2019-03-22T11:35:19.120Z,146240.75
2019-03-22T11:40:16.449Z,146202.91
2019-03-22T11:45:17.792Z,146251.37
2019-03-22T11:50:13.943Z,146316.48
2019-03-22T11:55:11.767Z,146325.95
2019-03-22T12:00:17.691Z,146333.03
2019-03-22T12:05:14.215Z,146269.13
2019-03-22T12:10:12.845Z,146176.91
2019-03-22T12:15:11.068Z,146146.14
2019-03-22T12:20:10.292Z,146214.73
2019-03-22T12:25:08.138Z,146266.75
2019-03-22T12:30:10.308Z,146279.75
2019-03-22T12:35:06.729Z,146353.13
2019-03-22T12:40:07.862Z,146307.03
2019-03-22T12:45:10.210Z,146348.42
2019-03-22T12:50:06.528Z,146482.16
2019-03-22T12:55:06.165Z,146495.17
2019-03-22T13:00:05.598Z,146491.63
2019-03-22T13:05:01.716Z,146432.41
2019-03-22T13:10:01.308Z,146553.19
2019-03-22T13:14:59.665Z,146618.28
2019-03-22T13:19:55.786Z,146615.91
2019-03-22T13:24:57.520Z,146502.25
2019-03-22T13:29:55.891Z,146465.56
2019-03-22T13:34:51.893Z,146514.11
2019-03-22T13:39:47.830Z,146557.91
2019-03-22T13:44:43.852Z,146614.73
2019-03-22T13:49:39.776Z,146523.58
2019-03-22T13:54:36.557Z,146475.02
2019-03-22T13:59:32.455Z,146624.20
2019-03-22T14:04:28.379Z,146662.14
2019-03-22T14:09:24.301Z,146615.91
2019-03-22T14:14:20.299Z,146688.19
2019-03-22T14:19:16.221Z,146432.41
2019-03-22T14:24:20.899Z,146574.47
2019-03-22T14:29:16.911Z,146568.55
2019-03-22T14:34:12.835Z,146618.28
2019-03-22T14:39:08.855Z,146536.59
2019-03-22T14:44:04.877Z,146575.69
2019-03-22T14:49:00.906Z,146562.67
2019-03-22T14:54:03.972Z,146579.23
2019-03-22T14:58:59.990Z,146404.00
2019-03-22T15:03:55.917Z,146546.06
2019-03-22T15:08:51.857Z,146593.41
2019-03-22T15:13:52.465Z,146617.11
2019-03-22T15:19:02.421Z,146593.41
2019-03-22T15:24:29.598Z,146595.78
2019-03-22T15:29:39.817Z,146637.22
2019-03-22T15:34:55.932Z,146570.92
2019-03-22T15:39:56.725Z,146559.08
2019-03-22T15:44:52.791Z,146593.41
2019-03-22T15:49:48.821Z,146611.19
2019-03-22T15:54:45.352Z,146600.55
2019-03-22T15:59:41.445Z,146600.55
2019-03-22T16:04:37.369Z,146515.31
2019-03-22T16:09:33.287Z,146512.94
2019-03-22T16:14:29.239Z,146550.81
2019-03-22T16:19:25.161Z,146538.97
2019-03-22T16:24:25.000Z,146501.09
2019-03-22T16:29:20.919Z,146478.61
2019-03-22T16:34:16.846Z,146566.22
2019-03-22T16:39:12.760Z,146546.06
2019-03-22T16:44:08.687Z,146541.34
2019-03-22T16:49:04.620Z,146536.59
2019-03-22T16:54:00.637Z,146652.62
2019-03-22T16:58:56.563Z,146707.12
2019-03-22T17:03:52.582Z,146623.03
2019-03-22T17:08:48.500Z,146640.77
2019-03-22T17:13:44.430Z,146605.27
2019-03-22T17:18:40.361Z,146518.86
2019-03-22T17:23:36.280Z,146337.80
2019-03-22T17:28:32.210Z,146139.06
2019-03-22T17:33:28.338Z,146004.25
2019-03-22T17:38:24.262Z,145899.09
2019-03-22T17:43:20.219Z,145764.39
2019-03-22T17:48:16.141Z,145725.44
2019-03-22T17:53:12.061Z,145593.17
2019-03-22T17:58:08.009Z,145491.69
2019-03-22T18:03:03.932Z,145399.63
2019-03-22T18:07:59.847Z,145327.67
2019-03-22T18:12:55.783Z,145241.56
2019-03-22T18:17:51.710Z,145156.63
2019-03-22T18:22:47.635Z,145114.22
2019-03-22T18:27:43.567Z,145067.09
2019-03-22T18:32:39.495Z,145030.55
2019-03-22T18:37:35.531Z,144968.09
2019-03-22T18:42:31.453Z,144904.45
2019-03-22T18:47:27.668Z,144845.59
2019-03-22T18:52:23.622Z,144798.50
2019-03-22T18:57:19.632Z,144817.34
2019-03-22T19:02:15.651Z,144744.36
2019-03-22T19:07:11.653Z,144694.88
2019-03-22T19:12:07.726Z,144661.89
2019-03-22T19:17:03.672Z,144619.55
2019-03-22T19:22:01.083Z,144607.77
2019-03-22T19:26:57.980Z,144626.59
2019-03-22T19:32:00.596Z,144636.02
2019-03-22T19:37:02.349Z,144673.67
2019-03-22T19:42:05.827Z,144679.56
2019-03-22T19:47:07.108Z,144685.45
2019-03-22T19:52:07.571Z,144663.09
2019-03-22T20:02:27.621Z,144611.30
2019-03-22T20:07:31.523Z,144571.33
2019-03-22T20:12:29.133Z,144533.67
2019-03-22T20:17:30.259Z,144511.33
2019-03-22T20:22:35.544Z,144440.75
2019-03-22T20:27:34.211Z,144447.78
2019-03-22T20:32:33.159Z,144303.13
2019-03-22T20:42:51.434Z,144196.19
2019-03-22T20:47:48.357Z,144151.55
2019-03-22T20:52:50.896Z,144125.72
2019-03-22T20:57:51.231Z,144236.16
2019-03-22T21:02:50.137Z,144153.91
2019-03-22T21:07:49.038Z,144210.31
2019-03-22T21:12:49.799Z,144273.75
2019-03-22T21:17:53.835Z,144140.98
2019-03-22T21:22:55.646Z,144230.27
2019-03-22T21:27:56.067Z,144179.75
2019-03-22T21:32:55.765Z,144062.25
2019-03-22T21:37:53.936Z,143981.22
2019-03-22T21:42:51.439Z,143889.66
2019-03-22T21:47:49.213Z,143846.22
2019-03-22T21:52:46.404Z,143801.63
2019-03-22T21:57:43.664Z,143850.89
2019-03-22T22:02:40.614Z,143918.98
2019-03-22T22:07:38.533Z,143855.59
2019-03-22T22:12:35.493Z,143733.56
2019-03-22T22:17:31.536Z,143666.67
2019-03-22T22:22:27.452Z,143627.94
2019-03-22T22:27:23.379Z,143692.47
2019-03-22T22:32:19.853Z,143606.86
2019-03-22T22:37:15.776Z,143552.89
2019-03-22T22:42:11.750Z,143530.61
2019-03-22T22:47:07.785Z,143480.22
2019-03-22T22:52:03.718Z,143468.47
2019-03-22T22:56:59.695Z,143599.78
2019-03-22T23:01:55.821Z,143472.03
2019-03-22T23:06:51.842Z,143473.19
2019-03-22T23:11:47.770Z,143524.75
2019-03-22T23:16:43.706Z,143422.80
2019-03-22T23:21:39.751Z,143497.81
2019-03-22T23:26:35.687Z,143416.94
2019-03-22T23:31:31.639Z,143332.56
2019-03-22T23:36:27.575Z,143503.67
2019-03-22T23:41:23.511Z,143364.19
2019-03-22T23:46:19.454Z,143395.83
2019-03-22T23:51:15.483Z,143283.30
2019-03-22T23:56:11.413Z,143236.45
